sensor_id;sensor_type;location;lat;lon;timestamp;pressure;altitude;pressure_sealevel;temperature;humidity
72110;BME280;59983;52.010;5.420;2023-03-02T00:02:00;102571.69;;;2.82;68.03
72110;BME280;59983;52.010;5.420;2023-03-02T00:05:00;102569.69;;;2.72;68.27
72110;BME280;59983;52.010;5.420;2023-03-02T00:07:31;102571.31;;;2.73;68.60
72110;BME280;59983;52.010;5.420;2023-03-02T00:09:59;102574.25;;;2.72;68.94
72110;BME280;59983;52.010;5.420;2023-03-02T00:12:27;102563.06;;;2.75;69.24
72110;BME280;59983;52.010;5.420;2023-03-02T00:14:54;102573.13;;;2.90;69.55
72110;BME280;59983;52.010;5.420;2023-03-02T00:17:21;102567.47;;;2.86;70.16
72110;BME280;59983;52.010;5.420;2023-03-02T00:19:53;102569.16;;;2.92;70.31
72110;BME280;59983;52.010;5.420;2023-03-02T00:22:20;102565.41;;;2.93;70.99
72110;BME280;59983;52.010;5.420;2023-03-02T00:24:47;102562.41;;;2.90;71.24
72110;BME280;59983;52.010;5.420;2023-03-02T00:27:13;102557.84;;;2.90;71.63
72110;BME280;59983;52.010;5.420;2023-03-02T00:29:40;102565.59;;;2.87;71.91
72110;BME280;59983;52.010;5.420;2023-03-02T00:32:07;102550.41;;;2.92;nan
72110;BME280;59983;52.010;5.420;2023-03-02T00:34:34;102558.47;;;2.97;72.81
72110;BME280;59983;52.010;5.420;2023-03-02T00:37:00;102565.41;;;2.93;72.57
72110;BME280;59983;52.010;5.420;2023-03-02T00:39:27;102558.91;;;2.89;73.10
72110;BME280;59983;52.010;5.420;2023-03-02T00:41:53;102550.94;;;2.94;73.34
72110;BME280;59983;52.010;5.420;2023-03-02T00:44:20;102558.44;;;2.92;73.96
72110;BME280;59983;52.010;5.420;2023-03-02T00:46:46;102555.78;;;2.97;74.96
72110;BME280;59983;52.010;5.420;2023-03-02T00:49:13;102546.69;;;2.98;74.83
72110;BME280;59983;52.010;5.420;2023-03-02T00:51:39;102554.00;;;3.03;75.60
72110;BME280;59983;52.010;5.420;2023-03-02T00:54:06;102553.47;;;3.06;75.95
72110;BME280;59983;52.010;5.420;2023-03-02T00:56:32;102561.50;;;3.06;76.47
72110;BME280;59983;52.010;5.420;2023-03-02T00:59:06;102562.13;;;3.13;76.75
72110;BME280;59983;52.010;5.420;2023-03-02T01:01:36;102549.53;;;3.13;76.91
72110;BME280;59983;52.010;5.420;2023-03-02T01:04:03;102551.41;;;3.13;77.44
72110;BME280;59983;52.010;5.420;2023-03-02T01:06:29;102551.97;;;3.15;77.64
72110;BME280;59983;52.010;5.420;2023-03-02T01:08:56;102544.53;;;3.22;78.14
72110;BME280;59983;52.010;5.420;2023-03-02T01:11:23;102559.19;;;3.15;78.22
72110;BME280;59983;52.010;5.420;2023-03-02T01:13:49;102553.84;;;3.15;77.73
72110;BME280;59983;52.010;5.420;2023-03-02T01:16:16;102550.63;;;3.18;78.03
72110;BME280;59983;52.010;5.420;2023-03-02T01:18:42;102558.38;;;3.14;77.75
72110;BME280;59983;52.010;5.420;2023-03-02T01:21:14;102559.53;;;3.18;77.73
72110;BME280;59983;52.010;5.420;2023-03-02T01:23:40;102555.25;;;3.22;77.48
72110;BME280;59983;52.010;5.420;2023-03-02T01:26:07;102549.09;;;3.22;77.66
72110;BME280;59983;52.010;5.420;2023-03-02T01:28:34;102556.22;;;3.11;77.55
72110;BME280;59983;52.010;5.420;2023-03-02T01:31:01;102547.00;;;3.02;77.81
72110;BME280;59983;52.010;5.420;2023-03-02T01:33:30;102544.91;;;3.09;77.95
72110;BME280;59983;52.010;5.420;2023-03-02T01:35:56;102547.59;;;3.09;77.57
72110;BME280;59983;52.010;5.420;2023-03-02T01:38:23;102544.47;;;3.17;78.10
72110;BME280;59983;52.010;5.420;2023-03-02T01:40:50;102545.75;;;3.09;77.88
72110;BME280;59983;52.010;5.420;2023-03-02T01:43:16;102536.47;;;2.95;78.21
72110;BME280;59983;52.010;5.420;2023-03-02T01:45:47;102540.78;;;2.96;78.26
72110;BME280;59983;52.010;5.420;2023-03-02T01:48:15;102536.47;;;2.95;78.31
72110;BME280;59983;52.010;5.420;2023-03-02T01:50:43;102541.72;;;2.85;78.60
72110;BME280;59983;52.010;5.420;2023-03-02T01:53:12;102547.81;;;2.80;78.73
72110;BME280;59983;52.010;5.420;2023-03-02T01:55:39;102542.78;;;2.84;78.99
72110;BME280;59983;52.010;5.420;2023-03-02T01:58:06;102547.53;;;2.77;78.64
72110;BME280;59983;52.010;5.420;2023-03-02T02:00:36;102541.41;;;2.81;79.21
72110;BME280;59983;52.010;5.420;2023-03-02T02:03:16;102536.31;;;2.80;79.15
72110;BME280;59983;52.010;5.420;2023-03-02T02:08:24;102537.50;;;2.67;79.13
72110;BME280;59983;52.010;5.420;2023-03-02T02:10:52;102530.81;;;2.70;79.55
72110;BME280;59983;52.010;5.420;2023-03-02T02:13:19;102528.41;;;2.68;79.55
72110;BME280;59983;52.010;5.420;2023-03-02T02:15:46;102531.09;;;2.68;79.22
72110;BME280;59983;52.010;5.420;2023-03-02T02:18:12;102528.16;;;2.70;79.72
72110;BME280;59983;52.010;5.420;2023-03-02T02:20:42;102528.22;;;2.75;79.87
72110;BME280;59983;52.010;5.420;2023-03-02T02:26:54;102525.78;;;2.73;79.83
72110;BME280;59983;52.010;5.420;2023-03-02T02:29:20;102525.72;;;2.68;79.78
72110;BME280;59983;52.010;5.420;2023-03-02T02:32:15;102521.69;;;2.66;80.29
72110;BME280;59983;52.010;5.420;2023-03-02T02:37:41;102519.75;;;2.61;80.24
72110;BME280;59983;52.010;5.420;2023-03-02T02:40:37;102504.66;;;2.55;80.52
72110;BME280;59983;52.010;5.420;2023-03-02T02:43:05;102513.19;;;2.52;80.68
72110;BME280;59983;52.010;5.420;2023-03-02T02:45:32;102510.09;;;2.60;80.97
72110;BME280;59983;52.010;5.420;2023-03-02T02:48:00;102516.19;;;2.55;81.15
72110;BME280;59983;52.010;5.420;2023-03-02T02:50:32;102510.34;;;2.59;81.12
72110;BME280;59983;52.010;5.420;2023-03-02T02:53:10;102504.91;;;2.53;81.37
72110;BME280;59983;52.010;5.420;2023-03-02T02:55:39;102503.38;;;2.58;81.39
72110;BME280;59983;52.010;5.420;2023-03-02T03:00:49;102494.19;;;2.53;82.03
72110;BME280;59983;52.010;5.420;2023-03-02T03:03:28;102494.56;;;2.62;82.02
72110;BME280;59983;52.010;5.420;2023-03-02T03:06:03;102494.75;;;2.55;82.01
72110;BME280;59983;52.010;5.420;2023-03-02T03:11:14;102495.78;;;2.49;82.04
72110;BME280;59983;52.010;5.420;2023-03-02T03:13:42;102497.44;;;2.55;82.18
72110;BME280;59983;52.010;5.420;2023-03-02T03:16:13;102493.13;;;2.54;82.21
72110;BME280;59983;52.010;5.420;2023-03-02T03:18:44;102495.00;;;2.54;82.17
72110;BME280;59983;52.010;5.420;2023-03-02T03:21:12;102499.56;;;2.53;82.50
72110;BME280;59983;52.010;5.420;2023-03-02T03:23:38;102489.03;;;2.47;82.41
72110;BME280;59983;52.010;5.420;2023-03-02T03:26:05;102496.69;;;2.38;82.64
72110;BME280;59983;52.010;5.420;2023-03-02T03:28:32;102490.84;;;2.41;82.95
72110;BME280;59983;52.010;5.420;2023-03-02T03:30:59;102489.88;;;2.47;82.59
72110;BME280;59983;52.010;5.420;2023-03-02T03:33:25;102489.59;;;2.49;82.98
72110;BME280;59983;52.010;5.420;2023-03-02T03:35:52;102491.28;;;2.55;82.83
72110;BME280;59983;52.010;5.420;2023-03-02T03:38:19;102494.97;;;2.49;82.69
72110;BME280;59983;52.010;5.420;2023-03-02T03:40:45;102495.22;;;2.47;82.99
72110;BME280;59983;52.010;5.420;2023-03-02T03:43:12;102495.25;;;2.52;83.12
72110;BME280;59983;52.010;5.420;2023-03-02T03:45:40;102497.38;;;2.50;83.20
72110;BME280;59983;52.010;5.420;2023-03-02T03:48:06;102503.47;;;2.46;83.54
72110;BME280;59983;52.010;5.420;2023-03-02T03:50:33;102500.56;;;2.47;83.91
72110;BME280;59983;52.010;5.420;2023-03-02T03:53:00;102505.59;;;2.44;83.49
72110;BME280;59983;52.010;5.420;2023-03-02T03:55:29;102496.59;;;2.50;83.82
72110;BME280;59983;52.010;5.420;2023-03-02T03:57:55;102498.19;;;2.51;83.56
72110;BME280;59983;52.010;5.420;2023-03-02T04:00:22;102489.59;;;2.49;84.21
72110;BME280;59983;52.010;5.420;2023-03-02T04:02:49;102484.28;;;2.54;83.72
72110;BME280;59983;52.010;5.420;2023-03-02T04:05:16;102498.72;;;2.48;83.50
72110;BME280;59983;52.010;5.420;2023-03-02T04:07:43;102491.22;;;2.50;83.85
72110;BME280;59983;52.010;5.420;2023-03-02T04:10:10;102492.72;;;2.41;83.48
72110;BME280;59983;52.010;5.420;2023-03-02T04:12:39;102495.44;;;2.46;83.64
72110;BME280;59983;52.010;5.420;2023-03-02T04:15:07;102500.88;;;2.51;83.52
72110;BME280;59983;52.010;5.420;2023-03-02T04:17:34;102496.31;;;2.51;83.80
72110;BME280;59983;52.010;5.420;2023-03-02T04:20:01;102506.16;;;2.46;83.58
72110;BME280;59983;52.010;5.420;2023-03-02T04:22:27;102503.06;;;2.32;83.58
72110;BME280;59983;52.010;5.420;2023-03-02T04:24:54;102505.22;;;2.35;83.97
72110;BME280;59983;52.010;5.420;2023-03-02T04:27:20;102503.88;;;2.33;84.22
72110;BME280;59983;52.010;5.420;2023-03-02T04:29:47;102499.81;;;2.30;83.94
72110;BME280;59983;52.010;5.420;2023-03-02T04:32:14;102493.97;;;2.33;83.96
72110;BME280;59983;52.010;5.420;2023-03-02T04:34:40;102495.28;;;2.31;84.01
72110;BME280;59983;52.010;5.420;2023-03-02T04:37:07;102500.56;;;2.25;84.14
72110;BME280;59983;52.010;5.420;2023-03-02T04:39:33;102505.59;;;2.22;84.06
72110;BME280;59983;52.010;5.420;2023-03-02T04:42:00;102504.78;;;2.21;84.07
72110;BME280;59983;52.010;5.420;2023-03-02T04:44:26;102497.78;;;2.20;84.35
72110;BME280;59983;52.010;5.420;2023-03-02T04:46:53;102494.69;;;2.28;83.97
72110;BME280;59983;52.010;5.420;2023-03-02T04:49:20;102494.13;;;2.26;84.15
72110;BME280;59983;52.010;5.420;2023-03-02T04:51:48;102493.28;;;2.21;83.76
72110;BME280;59983;52.010;5.420;2023-03-02T04:54:23;102492.94;;;2.17;83.88
72110;BME280;59983;52.010;5.420;2023-03-02T04:56:50;102504.31;;;2.08;83.81
72110;BME280;59983;52.010;5.420;2023-03-02T04:59:19;102491.13;;;2.01;84.46
72110;BME280;59983;52.010;5.420;2023-03-02T05:01:47;102504.63;;;2.11;84.57
72110;BME280;59983;52.010;5.420;2023-03-02T05:04:14;102497.66;;;2.10;84.45
72110;BME280;59983;52.010;5.420;2023-03-02T05:06:40;102500.09;;;2.12;84.46
72110;BME280;59983;52.010;5.420;2023-03-02T05:09:07;102496.03;;;2.09;84.39
72110;BME280;59983;52.010;5.420;2023-03-02T05:11:34;102494.19;;;2.10;84.34
72110;BME280;59983;52.010;5.420;2023-03-02T05:14:03;102484.28;;;2.10;84.26
72110;BME280;59983;52.010;5.420;2023-03-02T05:16:32;102481.94;;;2.14;84.08
72110;BME280;59983;52.010;5.420;2023-03-02T05:19:00;102476.75;;;2.07;84.21
72110;BME280;59983;52.010;5.420;2023-03-02T05:21:27;102474.25;;;2.01;84.56
72110;BME280;59983;52.010;5.420;2023-03-02T05:23:54;102483.34;;;1.99;83.88
72110;BME280;59983;52.010;5.420;2023-03-02T05:26:20;102481.72;;;1.98;84.39
72110;BME280;59983;52.010;5.420;2023-03-02T05:28:47;102471.28;;;1.97;84.60
72110;BME280;59983;52.010;5.420;2023-03-02T05:31:20;102475.81;;;1.96;84.57
72110;BME280;59983;52.010;5.420;2023-03-02T05:33:47;102483.03;;;1.96;84.52
72110;BME280;59983;52.010;5.420;2023-03-02T05:36:14;102479.53;;;1.95;84.80
72110;BME280;59983;52.010;5.420;2023-03-02T05:38:44;102484.81;;;1.90;84.69
72110;BME280;59983;52.010;5.420;2023-03-02T05:41:11;102484.00;;;1.90;84.34
72110;BME280;59983;52.010;5.420;2023-03-02T05:43:38;102476.47;;;1.87;84.51
72110;BME280;59983;52.010;5.420;2023-03-02T05:46:04;102480.13;;;1.81;84.69
72110;BME280;59983;52.010;5.420;2023-03-02T05:48:31;102485.78;;;1.84;84.27
72110;BME280;59983;52.010;5.420;2023-03-02T05:50:57;102483.91;;;1.85;84.76
72110;BME280;59983;52.010;5.420;2023-03-02T05:53:24;102486.13;;;1.88;84.59
72110;BME280;59983;52.010;5.420;2023-03-02T05:55:51;102487.75;;;1.89;84.47
72110;BME280;59983;52.010;5.420;2023-03-02T05:58:18;102484.81;;;1.90;84.52
72110;BME280;59983;52.010;5.420;2023-03-02T06:00:46;102492.34;;;1.93;84.49
72110;BME280;59983;52.010;5.420;2023-03-02T06:03:14;102485.38;;;1.76;84.43
72110;BME280;59983;52.010;5.420;2023-03-02T06:05:41;102496.44;;;1.79;84.40
72110;BME280;59983;52.010;5.420;2023-03-02T06:08:08;102492.59;;;1.75;84.10
72110;BME280;59983;52.010;5.420;2023-03-02T06:10:35;102495.13;;;1.82;84.54
72110;BME280;59983;52.010;5.420;2023-03-02T06:13:01;102495.88;;;1.77;84.24
72110;BME280;59983;52.010;5.420;2023-03-02T06:15:28;102494.56;;;1.80;84.51
72110;BME280;59983;52.010;5.420;2023-03-02T06:17:57;102496.50;;;1.67;84.45
72110;BME280;59983;52.010;5.420;2023-03-02T06:20:24;102499.75;;;1.69;84.93
72110;BME280;59983;52.010;5.420;2023-03-02T06:22:51;102506.47;;;1.72;84.61
72110;BME280;59983;52.010;5.420;2023-03-02T06:25:22;102497.56;;;1.66;84.84
72110;BME280;59983;52.010;5.420;2023-03-02T06:27:50;102500.56;;;1.70;84.75
72110;BME280;59983;52.010;5.420;2023-03-02T06:30:21;102507.44;;;1.66;84.66
72110;BME280;59983;52.010;5.420;2023-03-02T06:32:48;102507.38;;;1.61;84.99
72110;BME280;59983;52.010;5.420;2023-03-02T06:35:15;102495.78;;;1.55;84.94
72110;BME280;59983;52.010;5.420;2023-03-02T06:37:42;102493.59;;;1.52;85.41
72110;BME280;59983;52.010;5.420;2023-03-02T06:40:10;102514.09;;;1.63;85.38
72110;BME280;59983;52.010;5.420;2023-03-02T06:42:37;102513.69;;;1.72;85.26
72110;BME280;59983;52.010;5.420;2023-03-02T06:45:05;102520.56;;;1.67;85.27
72110;BME280;59983;52.010;5.420;2023-03-02T06:47:32;102520.66;;;1.73;85.64
72110;BME280;59983;52.010;5.420;2023-03-02T06:49:59;102519.09;;;1.77;85.18
72110;BME280;59983;52.010;5.420;2023-03-02T06:52:25;102518.38;;;1.81;85.33
72110;BME280;59983;52.010;5.420;2023-03-02T06:54:55;102530.88;;;1.76;85.00
72110;BME280;59983;52.010;5.420;2023-03-02T06:57:21;102524.22;;;1.78;84.64
72110;BME280;59983;52.010;5.420;2023-03-02T06:59:48;102523.66;;;1.76;85.22
72110;BME280;59983;52.010;5.420;2023-03-02T07:02:14;102526.41;;;1.81;85.21
72110;BME280;59983;52.010;5.420;2023-03-02T07:04:41;102526.97;;;1.83;85.02
72110;BME280;59983;52.010;5.420;2023-03-02T07:07:07;102513.59;;;1.83;85.12
72110;BME280;59983;52.010;5.420;2023-03-02T07:09:34;102520.00;;;1.82;85.10
72110;BME280;59983;52.010;5.420;2023-03-02T07:12:00;102515.16;;;1.79;85.29
72110;BME280;59983;52.010;5.420;2023-03-02T07:14:27;102512.47;;;1.96;85.15
72110;BME280;59983;52.010;5.420;2023-03-02T07:16:53;102514.81;;;1.92;85.03
72110;BME280;59983;52.010;5.420;2023-03-02T07:19:23;102514.06;;;1.97;85.20
72110;BME280;59983;52.010;5.420;2023-03-02T07:21:49;102516.09;;;2.07;85.00
72110;BME280;59983;52.010;5.420;2023-03-02T07:24:16;102517.72;;;2.08;84.93
72110;BME280;59983;52.010;5.420;2023-03-02T07:26:42;102514.53;;;2.11;85.15
72110;BME280;59983;52.010;5.420;2023-03-02T07:29:09;102506.28;;;2.12;84.77
72110;BME280;59983;52.010;5.420;2023-03-02T07:31:35;102511.94;;;2.16;84.50
72110;BME280;59983;52.010;5.420;2023-03-02T07:34:02;102504.78;;;2.21;84.83
72110;BME280;59983;52.010;5.420;2023-03-02T07:36:29;102503.72;;;2.22;85.08
72110;BME280;59983;52.010;5.420;2023-03-02T07:38:55;102500.81;;;2.24;84.89
72110;BME280;59983;52.010;5.420;2023-03-02T07:41:22;102500.47;;;2.20;84.82
72110;BME280;59983;52.010;5.420;2023-03-02T07:43:49;102495.75;;;2.27;84.93
72110;BME280;59983;52.010;5.420;2023-03-02T07:46:15;102512.19;;;2.36;85.05
72110;BME280;59983;52.010;5.420;2023-03-02T07:48:42;102505.41;;;2.50;84.99
72110;BME280;59983;52.010;5.420;2023-03-02T07:51:08;102504.22;;;2.63;84.71
72110;BME280;59983;52.010;5.420;2023-03-02T07:53:35;102504.66;;;2.55;84.55
72110;BME280;59983;52.010;5.420;2023-03-02T07:56:09;102508.22;;;2.61;84.50
72110;BME280;59983;52.010;5.420;2023-03-02T07:58:36;102504.28;;;2.68;84.51
72110;BME280;59983;52.010;5.420;2023-03-02T08:01:03;102518.44;;;2.86;84.48
72110;BME280;59983;52.010;5.420;2023-03-02T08:03:31;102508.88;;;2.95;83.88
72110;BME280;59983;52.010;5.420;2023-03-02T08:05:57;102503.53;;;3.00;83.67
72110;BME280;59983;52.010;5.420;2023-03-02T08:08:24;102498.91;;;3.17;83.16
72110;BME280;59983;52.010;5.420;2023-03-02T08:10:50;102511.34;;;3.28;83.30
72110;BME280;59983;52.010;5.420;2023-03-02T08:13:17;102503.69;;;3.42;82.18
72110;BME280;59983;52.010;5.420;2023-03-02T08:15:43;102503.38;;;3.38;82.33
72110;BME280;59983;52.010;5.420;2023-03-02T08:18:10;102506.16;;;3.49;82.33
72110;BME280;59983;52.010;5.420;2023-03-02T08:20:37;102505.50;;;3.68;81.75
72110;BME280;59983;52.010;5.420;2023-03-02T08:23:03;102510.13;;;3.78;81.33
72110;BME280;59983;52.010;5.420;2023-03-02T08:25:30;102508.38;;;3.94;81.72
72110;BME280;59983;52.010;5.420;2023-03-02T08:27:56;102512.84;;;4.25;81.62
72110;BME280;59983;52.010;5.420;2023-03-02T08:30:23;102509.66;;;4.34;80.32
72110;BME280;59983;52.010;5.420;2023-03-02T08:32:49;102505.13;;;4.39;79.70
72110;BME280;59983;52.010;5.420;2023-03-02T08:35:16;102508.09;;;4.43;79.76
72110;BME280;59983;52.010;5.420;2023-03-02T08:37:42;102506.25;;;4.53;79.30
72110;BME280;59983;52.010;5.420;2023-03-02T08:40:09;102518.66;;;4.65;78.39
72110;BME280;59983;52.010;5.420;2023-03-02T08:42:36;102515.47;;;4.73;78.10
72110;BME280;59983;52.010;5.420;2023-03-02T08:45:03;102510.31;;;4.61;77.62
72110;BME280;59983;52.010;5.420;2023-03-02T08:47:29;102526.25;;;4.78;77.26
72110;BME280;59983;52.010;5.420;2023-03-02T08:49:57;102519.78;;;4.79;77.57
72110;BME280;59983;52.010;5.420;2023-03-02T08:52:24;102516.34;;;4.99;77.38
72110;BME280;59983;52.010;5.420;2023-03-02T08:54:50;102518.19;;;4.93;76.54
72110;BME280;59983;52.010;5.420;2023-03-02T08:57:17;102517.97;;;5.05;76.20
72110;BME280;59983;52.010;5.420;2023-03-02T08:59:46;102523.63;;;5.08;75.84
72110;BME280;59983;52.010;5.420;2023-03-02T09:02:13;102515.81;;;5.12;76.93
72110;BME280;59983;52.010;5.420;2023-03-02T09:04:39;102515.28;;;5.20;75.44
72110;BME280;59983;52.010;5.420;2023-03-02T09:07:06;102508.31;;;5.34;75.82
72110;BME280;59983;52.010;5.420;2023-03-02T09:09:33;102511.56;;;5.42;75.77
72110;BME280;59983;52.010;5.420;2023-03-02T09:11:59;102509.13;;;5.45;75.00
72110;BME280;59983;52.010;5.420;2023-03-02T09:14:26;102505.38;;;5.51;75.08
72110;BME280;59983;52.010;5.420;2023-03-02T09:16:52;102496.75;;;5.59;75.55
72110;BME280;59983;52.010;5.420;2023-03-02T09:19:19;102504.28;;;5.78;74.49
72110;BME280;59983;52.010;5.420;2023-03-02T09:21:46;102499.69;;;5.73;74.90
72110;BME280;59983;52.010;5.420;2023-03-02T09:24:13;102500.75;;;5.82;73.95
72110;BME280;59983;52.010;5.420;2023-03-02T09:26:39;102505.34;;;5.82;73.84
72110;BME280;59983;52.010;5.420;2023-03-02T09:29:06;102501.03;;;5.81;73.77
72110;BME280;59983;52.010;5.420;2023-03-02T09:31:33;102506.97;;;5.98;74.06
72110;BME280;59983;52.010;5.420;2023-03-02T09:34:01;102500.50;;;6.04;73.19
72110;BME280;59983;52.010;5.420;2023-03-02T09:36:27;102494.81;;;6.01;73.59
72110;BME280;59983;52.010;5.420;2023-03-02T09:38:54;102513.94;;;6.19;73.16
72110;BME280;59983;52.010;5.420;2023-03-02T09:47:25;102500.38;;;6.35;73.26
72110;BME280;59983;52.010;5.420;2023-03-02T09:50:00;102515.38;;;6.61;72.66
72110;BME280;59983;52.010;5.420;2023-03-02T09:52:32;102514.28;;;6.62;72.56
72110;BME280;59983;52.010;5.420;2023-03-02T09:55:13;102513.13;;;6.78;71.98
72110;BME280;59983;52.010;5.420;2023-03-02T09:57:41;102515.75;;;6.94;71.52
72110;BME280;59983;52.010;5.420;2023-03-02T10:00:15;102515.00;;;6.83;71.09
72110;BME280;59983;52.010;5.420;2023-03-02T10:02:51;102511.50;;;6.82;71.29
72110;BME280;59983;52.010;5.420;2023-03-02T10:05:22;102520.06;;;6.95;71.31
72110;BME280;59983;52.010;5.420;2023-03-02T10:07:49;102522.69;;;7.05;70.70
72110;BME280;59983;52.010;5.420;2023-03-02T10:18:41;102512.81;;;7.29;69.52
72110;BME280;59983;52.010;5.420;2023-03-02T10:26:30;102504.31;;;7.46;68.62
72110;BME280;59983;52.010;5.420;2023-03-02T10:29:42;102506.16;;;7.51;67.85
72110;BME280;59983;52.010;5.420;2023-03-02T10:32:20;102507.03;;;7.46;68.20
72110;BME280;59983;52.010;5.420;2023-03-02T10:34:49;102503.94;;;7.58;67.68
72110;BME280;59983;52.010;5.420;2023-03-02T10:37:18;102499.91;;;7.60;68.14
72110;BME280;59983;52.010;5.420;2023-03-02T10:39:48;102493.88;;;7.69;67.02
72110;BME280;59983;52.010;5.420;2023-03-02T10:42:18;102487.78;;;7.82;67.61
72110;BME280;59983;52.010;5.420;2023-03-02T10:44:51;102491.50;;;7.91;66.68
72110;BME280;59983;52.010;5.420;2023-03-02T10:47:25;102489.81;;;8.19;66.69
72110;BME280;59983;52.010;5.420;2023-03-02T10:49:53;102485.53;;;8.42;65.78
72110;BME280;59983;52.010;5.420;2023-03-02T10:52:22;102485.03;;;8.40;64.79
72110;BME280;59983;52.010;5.420;2023-03-02T10:55:02;102481.88;;;8.28;64.81
72110;BME280;59983;52.010;5.420;2023-03-02T10:57:38;102482.53;;;8.19;63.18
72110;BME280;59983;52.010;5.420;2023-03-02T11:02:54;102471.88;;;8.28;63.86
72110;BME280;59983;52.010;5.420;2023-03-02T11:05:33;102482.53;;;8.43;63.39
72110;BME280;59983;52.010;5.420;2023-03-02T11:08:02;102475.75;;;8.46;62.47
72110;BME280;59983;52.010;5.420;2023-03-02T11:10:32;102470.44;;;8.60;63.02
72110;BME280;59983;52.010;5.420;2023-03-02T11:13:00;102472.09;;;8.74;61.97
72110;BME280;59983;52.010;5.420;2023-03-02T11:15:43;102462.84;;;8.80;62.05
72110;BME280;59983;52.010;5.420;2023-03-02T11:18:24;102468.16;;;9.04;62.47
72110;BME280;59983;52.010;5.420;2023-03-02T11:21:03;102453.59;;;9.19;61.90
72110;BME280;59983;52.010;5.420;2023-03-02T11:26:22;102452.22;;;9.35;60.67
72110;BME280;59983;52.010;5.420;2023-03-02T11:29:00;102449.63;;;9.44;59.82
72110;BME280;59983;52.010;5.420;2023-03-02T11:31:33;102449.19;;;9.56;60.50
72110;BME280;59983;52.010;5.420;2023-03-02T11:42:26;102420.91;;;9.76;58.72
72110;BME280;59983;52.010;5.420;2023-03-02T11:44:55;102427.63;;;9.78;58.68
72110;BME280;59983;52.010;5.420;2023-03-02T11:47:22;102425.50;;;9.89;57.89
72110;BME280;59983;52.010;5.420;2023-03-02T11:49:54;102420.81;;;9.94;58.10
72110;BME280;59983;52.010;5.420;2023-03-02T11:52:24;102424.50;;;10.12;58.67
72110;BME280;59983;52.010;5.420;2023-03-02T11:54:52;102416.28;;;10.31;57.78
72110;BME280;59983;52.010;5.420;2023-03-02T11:57:26;102424.41;;;10.45;58.74
72110;BME280;59983;52.010;5.420;2023-03-02T11:59:54;102417.25;;;10.49;56.90
72110;BME280;59983;52.010;5.420;2023-03-02T12:02:22;102412.84;;;10.53;56.10
72110;BME280;59983;52.010;5.420;2023-03-02T12:04:48;102417.38;;;10.44;55.28
72110;BME280;59983;52.010;5.420;2023-03-02T12:07:26;102411.56;;;10.37;56.93
72110;BME280;59983;52.010;5.420;2023-03-02T12:10:06;102410.78;;;10.59;57.26
72110;BME280;59983;52.010;5.420;2023-03-02T12:17:53;102414.50;;;10.63;55.17
72110;BME280;59983;52.010;5.420;2023-03-02T12:22:46;102404.97;;;10.88;55.01
72110;BME280;59983;52.010;5.420;2023-03-02T12:27:47;102399.41;;;11.15;53.96
72110;BME280;59983;52.010;5.420;2023-03-02T12:33:01;102385.63;;;11.12;54.07
72110;BME280;59983;52.010;5.420;2023-03-02T12:35:33;102387.66;;;11.28;54.68
72110;BME280;59983;52.010;5.420;2023-03-02T12:38:21;102385.97;;;11.41;54.04
72110;BME280;59983;52.010;5.420;2023-03-02T12:51:22;102386.13;;;11.76;52.87
72110;BME280;59983;52.010;5.420;2023-03-02T12:54:04;102380.22;;;11.82;51.96
72110;BME280;59983;52.010;5.420;2023-03-02T12:56:31;102373.38;;;11.85;51.92
72110;BME280;59983;52.010;5.420;2023-03-02T12:58:59;102373.22;;;11.90;51.69
72110;BME280;59983;52.010;5.420;2023-03-02T13:01:29;102375.63;;;12.00;52.07
72110;BME280;59983;52.010;5.420;2023-03-02T13:03:56;102367.34;;;12.05;51.45
72110;BME280;59983;52.010;5.420;2023-03-02T13:06:27;102370.38;;;12.04;50.81
72110;BME280;59983;52.010;5.420;2023-03-02T13:08:57;102358.53;;;12.08;49.06
72110;BME280;59983;52.010;5.420;2023-03-02T13:11:33;102366.56;;;12.22;49.31
72110;BME280;59983;52.010;5.420;2023-03-02T13:14:02;102356.31;;;12.28;49.65
72110;BME280;59983;52.010;5.420;2023-03-02T13:16:53;102349.59;;;12.16;49.89
72110;BME280;59983;52.010;5.420;2023-03-02T13:19:20;102342.72;;;12.28;48.79
72110;BME280;59983;52.010;5.420;2023-03-02T13:21:47;102351.53;;;12.33;49.82
72110;BME280;59983;52.010;5.420;2023-03-02T13:24:33;102340.97;;;12.49;50.20
72110;BME280;59983;52.010;5.420;2023-03-02T13:27:07;102338.22;;;12.75;49.78
72110;BME280;59983;52.010;5.420;2023-03-02T13:29:39;102338.81;;;12.89;48.61
72110;BME280;59983;52.010;5.420;2023-03-02T13:32:17;102331.50;;;12.81;47.74
72110;BME280;59983;52.010;5.420;2023-03-02T13:34:47;102334.06;;;12.69;47.84
72110;BME280;59983;52.010;5.420;2023-03-02T13:37:19;102340.59;;;12.94;48.13
72110;BME280;59983;52.010;5.420;2023-03-02T13:39:55;102329.63;;;13.28;48.08
72110;BME280;59983;52.010;5.420;2023-03-02T13:42:25;102330.47;;;13.20;46.16
72110;BME280;59983;52.010;5.420;2023-03-02T13:44:51;102320.88;;;13.52;47.80
72110;BME280;59983;52.010;5.420;2023-03-02T13:47:23;102321.63;;;13.62;45.94
72110;BME280;59983;52.010;5.420;2023-03-02T13:49:49;102323.97;;;13.72;46.13
72110;BME280;59983;52.010;5.420;2023-03-02T13:52:23;102326.66;;;13.80;46.18
72110;BME280;59983;52.010;5.420;2023-03-02T13:54:52;102322.09;;;14.14;44.89
72110;BME280;59983;52.010;5.420;2023-03-02T13:57:27;102325.94;;;14.34;44.40
72110;BME280;59983;52.010;5.420;2023-03-02T13:59:57;102322.19;;;14.38;44.04
72110;BME280;59983;52.010;5.420;2023-03-02T14:02:26;102324.44;;;14.45;44.64
72110;BME280;59983;52.010;5.420;2023-03-02T14:04:53;102316.53;;;14.64;43.26
72110;BME280;59983;52.010;5.420;2023-03-02T14:07:20;102314.38;;;14.58;44.12
72110;BME280;59983;52.010;5.420;2023-03-02T14:09:47;102310.78;;;14.78;44.92
72110;BME280;59983;52.010;5.420;2023-03-02T14:12:26;102306.38;;;14.98;43.87
72110;BME280;59983;52.010;5.420;2023-03-02T14:14:56;102306.00;;;15.69;43.06
72110;BME280;59983;52.010;5.420;2023-03-02T14:17:24;102296.53;;;16.19;41.28
72110;BME280;59983;52.010;5.420;2023-03-02T14:19:51;102300.13;;;16.63;40.07